Terminal Aerodrome Forecast
Issued by NWS

Home | Current Version | Previous Version | Text Only | Print | Product List | Glossary Off
Versions: 1 2 3 4 5 6 7 8 9 10 11 12 13 14 15 16 17

000
FTUS43 KICT 180522
TAFRSL
TAF
KRSL 180522Z 1806/1906 13006KT P6SM VCTS SCT035CB BKN150
     FM181000 15007KT P6SM SCT020 BKN035
     FM181600 17014KT P6SM SCT040 BKN150
     FM182100 17014G24KT P6SM VCTS SCT035CB BKN050=

USA.gov is the U.S. government's official web portal to all federal, state and local government web resources and services.